createdAt,value
2018-08-23T00:00:34.319Z,24.16
2018-08-23T00:03:02.610Z,24.13
2018-08-23T00:05:31.249Z,24.03
2018-08-23T00:08:09.998Z,24.11
2018-08-23T00:10:38.205Z,24.05
2018-08-23T00:13:07.146Z,24.04
2018-08-23T00:15:35.413Z,24.01
2018-08-23T00:18:03.644Z,24.03
2018-08-23T00:20:31.924Z,24.01
2018-08-23T00:23:00.185Z,23.99
2018-08-23T00:25:28.451Z,24.00
2018-08-23T00:27:56.670Z,23.91
2018-08-23T00:30:27.668Z,23.96
2018-08-23T00:32:55.918Z,23.88
2018-08-23T00:35:24.277Z,23.93
2018-08-23T00:37:52.530Z,23.90
2018-08-23T00:40:20.745Z,23.89
2018-08-23T00:42:54.369Z,23.87
2018-08-23T00:45:22.626Z,23.84
2018-08-23T00:47:50.853Z,23.82
2018-08-23T00:50:59.541Z,23.80
2018-08-23T00:53:28.960Z,23.76
2018-08-23T00:56:13.025Z,23.74
2018-08-23T00:58:44.041Z,23.72
2018-08-23T01:01:13.698Z,23.70
2018-08-23T01:03:42.165Z,23.62
2018-08-23T01:06:10.397Z,23.65
2018-08-23T01:08:38.660Z,23.63
2018-08-23T01:11:08.411Z,23.60
2018-08-23T01:13:36.717Z,23.58
2018-08-23T01:16:04.948Z,23.57
2018-08-23T01:18:33.165Z,23.56
2018-08-23T01:21:06.717Z,23.48
2018-08-23T01:23:35.221Z,23.49
2018-08-23T01:26:04.438Z,23.48
2018-08-23T01:28:32.865Z,23.47
2018-08-23T01:31:16.929Z,23.45
2018-08-23T01:33:45.545Z,23.43
2018-08-23T01:36:15.246Z,23.41
2018-08-23T01:38:43.456Z,23.41
2018-08-23T01:41:12.532Z,23.38
2018-08-23T01:43:41.965Z,23.36
2018-08-23T01:46:10.202Z,23.33
2018-08-23T01:48:39.149Z,23.32
2018-08-23T01:51:07.370Z,23.31
2018-08-23T01:53:38.248Z,23.30
2018-08-23T01:56:07.420Z,23.27
2018-08-23T01:58:35.849Z,23.26
2018-08-23T02:01:14.504Z,23.22
2018-08-23T02:03:43.077Z,23.20
2018-08-23T02:06:11.297Z,23.15
2018-08-23T02:08:39.553Z,23.11
2018-08-23T02:11:07.946Z,23.11
2018-08-23T02:13:36.176Z,23.10
2018-08-23T02:16:04.729Z,23.07
2018-08-23T02:18:33.760Z,23.04
2018-08-23T02:21:10.937Z,23.00
2018-08-23T02:23:46.715Z,22.95
2018-08-23T02:26:15.192Z,22.94
2018-08-23T02:28:45.952Z,22.92
2018-08-23T02:31:14.189Z,22.90
2018-08-23T02:33:42.429Z,22.87
2018-08-23T02:36:17.572Z,22.85
2018-08-23T02:38:47.505Z,22.83
2018-08-23T02:41:16.184Z,22.81
2018-08-23T02:43:44.909Z,22.78
2018-08-23T02:46:13.113Z,22.77
2018-08-23T02:48:41.357Z,22.74
2018-08-23T02:51:09.613Z,22.73
2018-08-23T02:53:40.105Z,22.67
2018-08-23T02:56:09.876Z,22.70
2018-08-23T02:58:51.150Z,22.68
2018-08-23T03:01:19.414Z,22.66
2018-08-23T03:04:00.593Z,22.64
2018-08-23T03:06:33.616Z,22.63
2018-08-23T03:09:01.905Z,22.64
2018-08-23T03:11:30.129Z,22.63
2018-08-23T03:13:58.399Z,22.63
2018-08-23T03:16:31.353Z,22.62
2018-08-23T03:18:59.607Z,22.62
2018-08-23T03:21:27.838Z,22.61
2018-08-23T03:23:56.069Z,22.61
2018-08-23T03:26:24.306Z,22.59
2018-08-23T03:28:52.512Z,22.56
2018-08-23T03:31:20.741Z,22.55
2018-08-23T03:33:48.965Z,22.54
2018-08-23T03:36:17.185Z,22.53
2018-08-23T03:38:45.408Z,22.49
2018-08-23T03:41:13.641Z,22.48
2018-08-23T03:43:41.986Z,22.46
2018-08-23T03:46:10.225Z,22.44
2018-08-23T03:48:38.460Z,22.43
2018-08-23T03:51:07.510Z,22.43
2018-08-23T03:53:47.892Z,22.42
2018-08-23T03:56:16.976Z,22.39
2018-08-23T03:58:45.293Z,22.38
2018-08-23T04:01:13.887Z,22.38
2018-08-23T04:03:42.376Z,22.35
2018-08-23T04:06:36.224Z,22.35
2018-08-23T04:09:07.757Z,22.34
2018-08-23T04:11:36.021Z,22.33
2018-08-23T04:14:04.301Z,22.31
2018-08-23T04:16:32.644Z,22.28
2018-08-23T04:19:00.873Z,22.26
2018-08-23T04:21:30.281Z,22.22
2018-08-23T04:23:58.609Z,22.20
2018-08-23T04:26:27.813Z,22.20
2018-08-23T04:28:56.072Z,22.19
2018-08-23T04:31:24.329Z,22.17
2018-08-23T04:33:52.588Z,22.15
2018-08-23T04:36:28.728Z,22.15
2018-08-23T04:38:59.864Z,22.16
2018-08-23T04:41:28.853Z,22.15
2018-08-23T04:44:06.969Z,22.14
2018-08-23T04:46:35.245Z,22.14
2018-08-23T04:49:05.617Z,22.14
2018-08-23T04:51:34.439Z,22.12
2018-08-23T04:54:02.937Z,22.10
2018-08-23T04:56:31.613Z,22.09
2018-08-23T04:59:00.109Z,22.08
2018-08-23T05:01:28.481Z,22.06
2018-08-23T05:03:56.688Z,22.07
2018-08-23T05:06:25.044Z,22.06
2018-08-23T05:08:53.304Z,22.05
2018-08-23T05:11:21.521Z,22.03
2018-08-23T05:13:56.415Z,22.01
2018-08-23T05:16:24.705Z,22.01
2018-08-23T05:18:52.989Z,21.99
2018-08-23T05:21:21.285Z,21.98
2018-08-23T05:23:49.605Z,21.99
2018-08-23T05:26:19.200Z,22.02
2018-08-23T05:28:59.817Z,22.06
2018-08-23T05:31:29.516Z,22.09
2018-08-23T05:34:05.367Z,22.12
2018-08-23T05:36:33.621Z,22.14
2018-08-23T05:39:02.458Z,22.16
2018-08-23T05:41:30.932Z,22.16
2018-08-23T05:44:03.669Z,22.19
2018-08-23T05:46:36.481Z,22.20
2018-08-23T05:49:05.043Z,22.23
2018-08-23T05:51:36.122Z,22.24
2018-08-23T05:54:04.561Z,22.27
2018-08-23T05:56:32.953Z,22.28
2018-08-23T05:59:06.549Z,22.29
2018-08-23T06:01:34.786Z,22.29
2018-08-23T06:04:03.112Z,22.29
2018-08-23T06:06:31.361Z,22.32
2018-08-23T06:09:01.466Z,22.33
2018-08-23T06:11:29.870Z,22.34
2018-08-23T06:13:58.106Z,22.36
2018-08-23T06:16:26.393Z,22.39
2018-08-23T06:18:54.673Z,22.35
2018-08-23T06:21:22.901Z,22.43
2018-08-23T06:23:56.034Z,22.44
2018-08-23T06:26:55.251Z,22.46
2018-08-23T06:29:26.585Z,22.48
2018-08-23T06:32:06.400Z,22.50
2018-08-23T06:34:39.581Z,22.51
2018-08-23T06:37:07.876Z,22.51
2018-08-23T06:39:36.249Z,22.51
2018-08-23T06:42:04.846Z,22.52
2018-08-23T06:44:36.676Z,22.54
2018-08-23T06:47:04.969Z,22.56
2018-08-23T06:49:33.297Z,22.55
2018-08-23T06:52:09.286Z,22.58
2018-08-23T06:54:37.524Z,22.60
2018-08-23T06:57:05.756Z,22.65
2018-08-23T06:59:34.025Z,22.68
2018-08-23T07:02:02.622Z,22.72
2018-08-23T07:04:30.884Z,22.74
2018-08-23T07:06:59.149Z,22.73
2018-08-23T07:09:27.361Z,22.73
2018-08-23T07:12:04.509Z,22.70
2018-08-23T07:14:34.367Z,22.67
2018-08-23T07:17:18.092Z,22.69
2018-08-23T07:19:47.249Z,22.70
2018-08-23T07:22:20.809Z,22.71
2018-08-23T07:24:49.857Z,22.71
2018-08-23T07:27:19.303Z,22.74
2018-08-23T07:29:48.853Z,22.76
2018-08-23T07:32:18.162Z,22.78
2018-08-23T07:35:18.306Z,22.83
2018-08-23T07:37:48.992Z,22.86
2018-08-23T07:40:19.280Z,22.89
2018-08-23T07:42:48.967Z,22.92
2018-08-23T07:45:17.169Z,22.93
2018-08-23T07:47:50.576Z,22.96
2018-08-23T07:50:18.981Z,23.00
2018-08-23T07:52:51.006Z,23.05
2018-08-23T07:55:19.145Z,23.07
2018-08-23T07:57:47.597Z,23.11
2018-08-23T08:00:25.716Z,23.13
2018-08-23T08:02:54.077Z,23.14
2018-08-23T08:05:24.209Z,23.18
2018-08-23T08:07:52.470Z,23.22
2018-08-23T08:10:20.917Z,23.24
2018-08-23T08:12:52.313Z,23.25
2018-08-23T08:15:20.789Z,23.29
2018-08-23T08:17:48.929Z,23.32
2018-08-23T08:20:17.201Z,23.37
2018-08-23T08:22:45.429Z,23.41
2018-08-23T08:25:19.273Z,23.45
2018-08-23T08:27:48.457Z,23.47
2018-08-23T08:30:19.431Z,23.52
2018-08-23T08:32:47.652Z,23.56
2018-08-23T08:35:19.073Z,23.57
2018-08-23T08:37:48.937Z,23.58
2018-08-23T08:40:24.249Z,23.59
2018-08-23T08:42:52.478Z,23.62
2018-08-23T08:45:20.913Z,23.62
2018-08-23T08:47:49.189Z,23.63
2018-08-23T08:50:17.489Z,23.64
2018-08-23T08:52:45.658Z,23.69
2018-08-23T08:55:15.537Z,23.75
2018-08-23T08:57:45.093Z,23.77
2018-08-23T09:00:13.297Z,23.79
2018-08-23T09:02:41.652Z,23.80
2018-08-23T09:05:10.617Z,23.84
2018-08-23T09:07:40.437Z,23.93
2018-08-23T09:10:08.716Z,23.98
2018-08-23T09:12:54.249Z,24.03
2018-08-23T09:15:22.612Z,24.07
2018-08-23T09:17:50.904Z,24.10
2018-08-23T09:20:19.867Z,24.14
2018-08-23T09:22:57.093Z,24.13
2018-08-23T09:25:28.132Z,24.14
2018-08-23T09:27:56.360Z,24.17
2018-08-23T09:30:30.778Z,24.21
2018-08-23T09:33:03.185Z,24.22
2018-08-23T09:35:32.677Z,24.24
2018-08-23T09:38:02.409Z,24.29
2018-08-23T09:40:30.737Z,24.35
2018-08-23T09:43:03.017Z,24.35
2018-08-23T09:45:32.269Z,24.35
2018-08-23T09:48:00.558Z,24.37
2018-08-23T09:50:28.890Z,24.37
2018-08-23T09:52:57.164Z,24.40
2018-08-23T09:55:28.609Z,24.45
2018-08-23T09:57:57.488Z,24.47
2018-08-23T10:00:31.440Z,24.49
2018-08-23T10:03:05.119Z,24.54
2018-08-23T10:05:38.750Z,24.60
2018-08-23T10:08:12.285Z,24.58
2018-08-23T10:10:45.885Z,24.64
2018-08-23T10:13:19.594Z,24.68
2018-08-23T10:16:53.857Z,24.78
2018-08-23T10:19:27.333Z,24.88
2018-08-23T10:22:00.929Z,24.93
2018-08-23T10:24:32.837Z,24.97
2018-08-23T10:27:01.425Z,25.11
2018-08-23T10:29:29.637Z,25.26
2018-08-23T10:31:57.927Z,25.24
2018-08-23T10:34:26.224Z,25.55
2018-08-23T10:36:54.421Z,25.81
2018-08-23T10:39:22.668Z,25.95
2018-08-23T10:41:50.897Z,26.12
2018-08-23T10:44:19.375Z,26.29
2018-08-23T10:46:53.060Z,26.48
2018-08-23T10:49:21.264Z,26.72
2018-08-23T10:51:49.509Z,26.94
2018-08-23T10:54:17.770Z,27.14
2018-08-23T10:56:46.028Z,27.34
2018-08-23T10:59:14.379Z,27.33
2018-08-23T11:01:42.586Z,27.24
2018-08-23T11:04:11.197Z,27.12
2018-08-23T11:06:44.677Z,27.02
2018-08-23T11:09:18.149Z,26.94
2018-08-23T11:11:46.405Z,26.88
2018-08-23T11:14:19.973Z,27.04
2018-08-23T11:16:53.666Z,27.19
2018-08-23T11:19:27.085Z,27.48
2018-08-23T11:21:55.309Z,27.71
2018-08-23T11:24:23.533Z,27.60
2018-08-23T11:26:51.821Z,27.67
2018-08-23T11:29:22.173Z,27.56
2018-08-23T11:31:50.889Z,27.41
2018-08-23T11:34:19.114Z,27.50
2018-08-23T11:36:47.425Z,27.68
2018-08-23T11:39:15.637Z,27.87
2018-08-23T11:41:43.903Z,28.06
2018-08-23T11:44:12.118Z,28.23
2018-08-23T11:46:40.333Z,28.42
2018-08-23T11:49:08.534Z,28.52
2018-08-23T11:51:36.817Z,28.62
2018-08-23T11:54:05.133Z,28.73
2018-08-23T11:56:33.448Z,28.84
2018-08-23T11:59:02.037Z,28.99
2018-08-23T12:01:30.244Z,29.06
2018-08-23T12:03:58.492Z,29.15
2018-08-23T12:06:26.760Z,29.16
2018-08-23T12:08:54.949Z,29.11
2018-08-23T12:11:23.157Z,29.16
2018-08-23T12:13:51.794Z,29.16
2018-08-23T12:16:20.089Z,29.12
2018-08-23T12:18:48.713Z,29.24
2018-08-23T12:21:16.962Z,29.41
2018-08-23T12:23:45.184Z,29.42
2018-08-23T12:26:13.446Z,29.35
2018-08-23T12:28:46.994Z,29.43
2018-08-23T12:31:15.406Z,29.51
2018-08-23T12:33:43.632Z,29.62
2018-08-23T12:36:12.277Z,29.69
2018-08-23T12:38:45.940Z,29.51
2018-08-23T12:41:19.485Z,29.26
2018-08-23T12:43:48.853Z,29.13
2018-08-23T12:46:17.559Z,28.99
2018-08-23T12:48:46.048Z,28.88
2018-08-23T12:51:14.325Z,28.87
2018-08-23T12:53:42.549Z,28.76
2018-08-23T12:56:11.074Z,28.59
2018-08-23T12:58:39.371Z,28.40
2018-08-23T13:01:07.565Z,28.43
2018-08-23T13:03:35.880Z,28.58
2018-08-23T13:06:04.144Z,28.47
2018-08-23T13:08:32.445Z,28.72
2018-08-23T13:11:00.692Z,29.06
2018-08-23T13:13:28.904Z,29.35
2018-08-23T13:15:57.145Z,29.63
2018-08-23T13:18:25.400Z,29.84
2018-08-23T13:20:53.612Z,29.95
2018-08-23T13:23:21.845Z,30.10
2018-08-23T13:25:55.479Z,30.16
2018-08-23T13:28:24.493Z,30.12
2018-08-23T13:30:53.095Z,30.06
2018-08-23T13:33:21.406Z,30.16
2018-08-23T13:35:49.884Z,30.36
2018-08-23T13:38:18.290Z,30.47
2018-08-23T13:40:46.537Z,30.61
2018-08-23T13:43:14.798Z,30.72
2018-08-23T13:45:43.145Z,30.88
2018-08-23T13:48:11.377Z,31.03
2018-08-23T13:50:39.612Z,31.09
2018-08-23T13:53:07.989Z,31.14
2018-08-23T13:55:36.233Z,31.17
2018-08-23T13:58:04.524Z,31.28
2018-08-23T14:00:37.977Z,31.25
2018-08-23T14:03:07.272Z,31.01
2018-08-23T14:05:35.599Z,30.91
2018-08-23T14:08:03.857Z,30.83
2018-08-23T14:10:32.165Z,30.70
2018-08-23T14:13:00.395Z,30.60
2018-08-23T14:15:33.864Z,30.74
2018-08-23T14:18:02.162Z,30.71
2018-08-23T14:20:30.393Z,30.56
2018-08-23T14:22:58.665Z,30.50
2018-08-23T14:25:26.877Z,30.32
2018-08-23T14:27:55.377Z,30.27
2018-08-23T14:30:23.713Z,30.17
2018-08-23T14:32:51.999Z,30.21
2018-08-23T14:35:20.204Z,30.19
2018-08-23T14:37:48.477Z,30.13
2018-08-23T14:40:16.762Z,30.22
2018-08-23T14:42:45.009Z,30.28
2018-08-23T14:45:17.453Z,30.32
2018-08-23T14:47:51.109Z,30.27
2018-08-23T14:50:19.380Z,30.34
2018-08-23T14:52:47.660Z,30.33
2018-08-23T14:55:20.141Z,30.38
2018-08-23T14:57:48.417Z,30.27
2018-08-23T15:00:16.673Z,30.07
2018-08-23T15:02:44.905Z,29.96
2018-08-23T15:05:13.285Z,29.74
2018-08-23T15:07:41.612Z,29.63
2018-08-23T15:10:09.825Z,29.52
2018-08-23T15:12:38.101Z,29.46
2018-08-23T15:15:08.328Z,29.39
2018-08-23T15:17:36.549Z,29.28
2018-08-23T15:20:04.920Z,29.24
2018-08-23T15:22:33.165Z,29.24
2018-08-23T15:25:01.413Z,29.27
2018-08-23T15:27:32.749Z,29.32
2018-08-23T15:30:01.822Z,29.29
2018-08-23T15:32:30.161Z,29.28
2018-08-23T15:34:58.423Z,29.30
2018-08-23T15:37:26.689Z,29.28
2018-08-23T15:39:55.021Z,29.25
2018-08-23T15:42:23.301Z,29.20
2018-08-23T15:44:51.608Z,29.31
2018-08-23T15:47:19.840Z,29.33
2018-08-23T15:49:48.089Z,29.37
2018-08-23T15:52:16.425Z,29.42
2018-08-23T15:54:44.665Z,29.39
2018-08-23T15:57:12.896Z,29.59
2018-08-23T15:59:41.117Z,29.51
2018-08-23T16:02:09.361Z,29.69
2018-08-23T16:04:37.590Z,29.92
2018-08-23T16:07:05.856Z,30.25
2018-08-23T16:09:34.169Z,30.44
2018-08-23T16:12:02.393Z,30.40
2018-08-23T16:14:30.658Z,30.44
2018-08-23T16:17:04.333Z,30.41
2018-08-23T16:19:37.756Z,30.40
2018-08-23T16:22:06.119Z,30.60
2018-08-23T16:24:34.341Z,30.54
2018-08-23T16:27:02.639Z,30.70
2018-08-23T16:29:30.885Z,30.65
2018-08-23T16:31:59.211Z,30.55
2018-08-23T16:34:27.715Z,30.28
2018-08-23T16:36:56.006Z,29.93
2018-08-23T16:39:24.325Z,29.87
2018-08-23T16:41:52.607Z,29.67
2018-08-23T16:44:20.839Z,29.39
2018-08-23T16:46:49.128Z,29.16
2018-08-23T16:49:17.392Z,29.17
2018-08-23T16:51:45.628Z,29.16
2018-08-23T16:54:13.829Z,29.05
2018-08-23T16:56:42.092Z,28.88
2018-08-23T16:59:10.377Z,28.75
2018-08-23T17:01:38.593Z,28.62
2018-08-23T17:04:06.887Z,28.44
2018-08-23T17:06:35.029Z,28.25
2018-08-23T17:09:03.345Z,28.07
2018-08-23T17:11:31.719Z,27.87
2018-08-23T17:13:59.921Z,27.81
2018-08-23T17:16:33.637Z,27.66
2018-08-23T17:19:01.886Z,27.48
2018-08-23T17:21:30.117Z,27.46
2018-08-23T17:23:58.401Z,27.42
2018-08-23T17:26:26.625Z,27.31
2018-08-23T17:28:54.845Z,27.18
2018-08-23T17:31:23.137Z,27.10
2018-08-23T17:33:51.397Z,27.03
2018-08-23T17:36:19.629Z,26.96
2018-08-23T17:38:47.895Z,26.91
2018-08-23T17:41:16.206Z,26.85
2018-08-23T17:43:44.449Z,26.75
2018-08-23T17:46:12.693Z,26.68
2018-08-23T17:48:40.909Z,26.55
2018-08-23T17:51:09.145Z,26.51
2018-08-23T17:53:37.403Z,26.43
2018-08-23T17:56:05.906Z,26.42
2018-08-23T17:58:34.161Z,26.35
2018-08-23T18:01:02.470Z,26.33
2018-08-23T18:03:30.682Z,26.33
2018-08-23T18:05:58.933Z,26.26
2018-08-23T18:08:27.201Z,26.18
2018-08-23T18:10:55.465Z,26.09
2018-08-23T18:13:23.725Z,26.04
2018-08-23T18:15:57.181Z,25.98
2018-08-23T18:18:25.381Z,25.91
2018-08-23T18:20:53.591Z,25.86
2018-08-23T18:23:22.025Z,25.77
2018-08-23T18:25:50.245Z,25.83
2018-08-23T18:28:18.498Z,25.80
2018-08-23T18:30:46.789Z,25.80
2018-08-23T18:33:15.048Z,25.78
2018-08-23T18:35:43.297Z,25.73
2018-08-23T18:38:11.533Z,25.66
2018-08-23T18:40:39.745Z,25.59
2018-08-23T18:43:07.965Z,25.55
2018-08-23T18:45:36.201Z,25.55
2018-08-23T18:48:04.445Z,25.53
2018-08-23T18:50:32.657Z,25.47
2018-08-23T18:53:03.929Z,25.46
2018-08-23T18:55:32.202Z,25.45
2018-08-23T18:58:00.441Z,25.45
2018-08-23T19:00:28.921Z,25.44
2018-08-23T19:02:57.261Z,25.44
2018-08-23T19:05:25.521Z,25.43
2018-08-23T19:07:53.756Z,25.43
2018-08-23T19:10:22.027Z,25.41
2018-08-23T19:12:50.353Z,25.38
2018-08-23T19:15:23.825Z,25.34
2018-08-23T19:17:52.210Z,25.34
2018-08-23T19:20:20.429Z,25.29
2018-08-23T19:22:48.696Z,25.23
2018-08-23T19:25:17.121Z,25.23
2018-08-23T19:27:45.213Z,25.19
2018-08-23T19:30:13.416Z,25.16
2018-08-23T19:32:41.624Z,25.13
2018-08-23T19:35:09.952Z,25.10
2018-08-23T19:37:38.209Z,25.06
2018-08-23T19:40:06.513Z,25.03
2018-08-23T19:42:34.808Z,25.01
2018-08-23T19:45:03.184Z,25.01
2018-08-23T19:47:36.706Z,24.95
2018-08-23T19:50:08.725Z,24.96
2018-08-23T19:52:37.184Z,24.93
2018-08-23T19:55:05.549Z,24.86
2018-08-23T19:57:33.760Z,24.88
2018-08-23T20:00:02.007Z,24.86
2018-08-23T20:02:30.221Z,24.80
2018-08-23T20:04:58.493Z,24.74
2018-08-23T20:07:26.769Z,24.68
2018-08-23T20:09:54.984Z,24.63
2018-08-23T20:12:23.263Z,24.61
2018-08-23T20:14:51.501Z,24.46
2018-08-23T20:17:19.732Z,24.49
2018-08-23T20:19:47.997Z,24.44
2018-08-23T20:22:16.280Z,24.50
2018-08-23T20:24:44.580Z,24.48
2018-08-23T20:27:12.777Z,24.49
2018-08-23T20:29:41.208Z,24.50
2018-08-23T20:32:09.497Z,24.50
2018-08-23T20:34:37.673Z,24.51
2018-08-23T20:37:05.928Z,24.52
2018-08-23T20:39:34.296Z,24.48
2018-08-23T20:42:02.477Z,24.44
2018-08-23T20:44:30.758Z,24.39
2018-08-23T20:46:59.018Z,24.34
2018-08-23T20:49:27.241Z,24.31
2018-08-23T20:51:55.513Z,24.26
2018-08-23T20:54:23.751Z,24.25
2018-08-23T20:56:51.985Z,24.26
2018-08-23T20:59:20.233Z,24.24
2018-08-23T21:01:48.453Z,24.24
2018-08-23T21:04:16.710Z,24.24
2018-08-23T21:06:44.922Z,24.21
2018-08-23T21:09:13.860Z,24.18
2018-08-23T21:11:42.137Z,24.15
2018-08-23T21:14:11.084Z,24.07
2018-08-23T21:16:39.353Z,24.04
2018-08-23T21:19:07.709Z,24.07
2018-08-23T21:21:35.990Z,24.06
2018-08-23T21:24:04.213Z,24.04
2018-08-23T21:26:32.441Z,24.04
2018-08-23T21:29:00.716Z,23.99
2018-08-23T21:31:28.917Z,24.00
2018-08-23T21:33:57.149Z,23.95
2018-08-23T21:36:25.426Z,23.99
2018-08-23T21:38:53.669Z,23.99
2018-08-23T21:41:22.053Z,23.97
2018-08-23T21:43:50.269Z,23.96
2018-08-23T21:46:18.608Z,23.94
2018-08-23T21:48:47.040Z,23.91
2018-08-23T21:51:15.382Z,23.89
2018-08-23T21:53:43.627Z,23.90
2018-08-23T21:56:11.874Z,23.88
2018-08-23T21:58:40.113Z,23.87
2018-08-23T22:01:09.345Z,23.83
2018-08-23T22:03:38.061Z,23.83
2018-08-23T22:06:06.332Z,23.80
2018-08-23T22:08:34.832Z,23.80
2018-08-23T22:11:03.229Z,23.78
2018-08-23T22:13:31.729Z,23.71
2018-08-23T22:15:59.962Z,23.79
2018-08-23T22:18:28.168Z,23.78
2018-08-23T22:20:56.477Z,23.77
2018-08-23T22:23:24.704Z,23.77
2018-08-23T22:25:52.919Z,23.77
2018-08-23T22:28:21.165Z,23.76
2018-08-23T22:30:49.426Z,23.74
2018-08-23T22:33:17.760Z,23.70
2018-08-23T22:35:45.996Z,23.65
2018-08-23T22:38:14.220Z,23.71
2018-08-23T22:40:42.442Z,23.72
2018-08-23T22:43:10.705Z,23.69
2018-08-23T22:45:38.925Z,23.65
2018-08-23T22:48:07.238Z,23.59
2018-08-23T22:50:35.441Z,23.51
2018-08-23T22:53:03.652Z,23.50
2018-08-23T22:55:31.901Z,23.48
2018-08-23T22:58:00.186Z,23.49
2018-08-23T23:00:33.805Z,23.50
2018-08-23T23:03:02.075Z,23.51
2018-08-23T23:05:30.309Z,23.50
2018-08-23T23:08:02.697Z,23.49
2018-08-23T23:10:30.898Z,23.50
2018-08-23T23:12:59.145Z,23.50
2018-08-23T23:15:27.433Z,23.52
2018-08-23T23:17:55.926Z,23.53
2018-08-23T23:20:24.145Z,23.55
2018-08-23T23:22:52.380Z,23.55
2018-08-23T23:25:20.629Z,23.51
2018-08-23T23:27:48.836Z,23.50
2018-08-23T23:30:17.061Z,23.42
2018-08-23T23:32:45.285Z,23.46
2018-08-23T23:35:13.497Z,23.43
2018-08-23T23:37:41.732Z,23.44
2018-08-23T23:40:09.980Z,23.43
2018-08-23T23:42:38.872Z,23.40
2018-08-23T23:45:07.924Z,23.38
2018-08-23T23:47:36.163Z,23.35
2018-08-23T23:50:04.833Z,23.31
2018-08-23T23:52:33.054Z,23.31
2018-08-23T23:55:01.333Z,23.29
2018-08-23T23:57:29.577Z,23.25
2018-08-23T23:59:58.069Z,23.21
